Time,TemperatureF,DewpointF,PressureIn,WindDirection,WindDirectionDegrees,WindSpeedMPH,WindSpeedGustMPH,Humidity,HourlyPrecipIn,Conditions,Clouds,dailyrainin,SoftwareType,DateUTC
2013-05-01 00:01:00,62.7,58.5,30.06,SE,131,0.0,0.0,86,0.00,SCT,,0.00,WeatherDisplay:10.37,2013-05-01 04:01:00,
2013-05-01 00:02:00,62.7,58.5,30.06,SE,131,0.0,0.0,86,0.00,SCT,,0.00,WeatherDisplay:10.37,2013-05-01 04:02:00,
2013-05-01 00:07:00,62.7,58.8,30.07,SE,131,0.0,0.0,87,0.00,SCT,,0.00,WeatherDisplay:10.37,2013-05-01 04:07:00,
2013-05-01 00:12:00,62.8,58.9,30.07,SE,131,0.0,0.0,87,0.00,CLR,,0.00,WeatherDisplay:10.37,2013-05-01 04:12:00,
2013-05-01 00:17:00,62.8,58.9,30.07,SE,131,0.0,0.0,87,0.00,CLR,,0.00,WeatherDisplay:10.37,2013-05-01 04:17:00,
2013-05-01 00:22:00,62.8,58.9,30.07,SE,131,0.0,0.0,87,0.00,CLR,,0.00,WeatherDisplay:10.37,2013-05-01 04:22:00,
2013-05-01 00:27:00,62.8,59.2,30.07,East,79,0.0,0.0,88,0.00,CLR,,0.00,WeatherDisplay:10.37,2013-05-01 04:27:00,
2013-05-01 00:32:00,62.8,59.2,30.07,East,81,0.0,0.0,88,0.00,CLR,,0.00,WeatherDisplay:10.37,2013-05-01 04:32:00,
2013-05-01 00:37:00,62.8,59.2,30.07,East,88,0.0,0.0,88,0.00,CLR,,0.00,WeatherDisplay:10.37,2013-05-01 04:37:00,
2013-05-01 00:42:00,62.9,59.3,30.07,ESE,113,0.0,0.0,88,0.00,CLR,,0.00,WeatherDisplay:10.37,2013-05-01 04:42:00,
2013-05-01 00:47:00,62.9,59.3,30.08,SSE,150,0.0,0.0,88,0.00,CLR,,0.00,WeatherDisplay:10.37,2013-05-01 04:47:00,
2013-05-01 00:52:00,62.9,59.6,30.08,SSE,150,0.0,0.0,89,0.00,CLR,,0.00,WeatherDisplay:10.37,2013-05-01 04:52:00,
2013-05-01 00:57:00,62.9,59.6,30.08,ESE,111,0.0,0.0,89,0.00,CLR,,0.00,WeatherDisplay:10.37,2013-05-01 04:57:00,
2013-05-01 01:02:00,62.9,59.6,30.08,East,101,0.0,0.0,89,0.00,CLR,,0.00,WeatherDisplay:10.37,2013-05-01 05:02:00,
2013-05-01 01:07:00,62.9,59.6,30.08,East,101,0.0,0.0,89,0.00,CLR,,0.00,WeatherDisplay:10.37,2013-05-01 05:07:00,
2013-05-01 01:12:00,62.9,59.6,30.08,East,101,0.0,0.0,89,0.00,CLR,,0.00,WeatherDisplay:10.37,2013-05-01 05:12:00,
2013-05-01 01:17:00,62.9,59.6,30.08,East,101,0.0,0.0,89,0.00,CLR,,0.00,WeatherDisplay:10.37,2013-05-01 05:17:00,
2013-05-01 01:22:00,62.9,59.6,30.08,East,101,0.0,0.0,89,0.00,CLR,,0.00,WeatherDisplay:10.37,2013-05-01 05:22:00,
2013-05-01 01:27:00,62.9,59.6,30.08,East,101,0.0,0.0,89,0.00,CLR,,0.00,WeatherDisplay:10.37,2013-05-01 05:27:00,
2013-05-01 01:32:00,62.8,59.5,30.08,East,101,0.0,0.0,89,0.00,CLR,,0.00,WeatherDisplay:10.37,2013-05-01 05:32:00,
2013-05-01 01:37:00,62.7,59.4,30.08,East,99,0.0,0.0,89,0.00,CLR,,0.00,WeatherDisplay:10.37,2013-05-01 05:37:00,
2013-05-01 01:42:00,62.7,59.7,30.08,East,99,0.0,0.0,90,0.00,CLR,,0.00,WeatherDisplay:10.37,2013-05-01 05:42:00,
2013-05-01 01:47:00,62.6,59.6,30.08,East,98,0.0,0.0,90,0.00,CLR,,0.00,WeatherDisplay:10.37,2013-05-01 05:47:00,
2013-05-01 01:52:00,62.6,59.6,30.08,East,98,0.0,0.0,90,0.00,CLR,,0.00,WeatherDisplay:10.37,2013-05-01 05:52:00,
2013-05-01 01:57:00,62.5,59.5,30.08,East,97,0.0,0.0,90,0.00,CLR,,0.00,WeatherDisplay:10.37,2013-05-01 05:57:00,
2013-05-01 02:02:00,62.4,59.4,30.08,East,96,0.0,0.0,90,0.00,CLR,,0.00,WeatherDisplay:10.37,2013-05-01 06:02:00,
2013-05-01 02:07:00,62.3,59.6,30.07,East,96,0.0,0.0,91,0.00,CLR,,0.00,WeatherDisplay:10.37,2013-05-01 06:07:00,
2013-05-01 02:12:00,62.3,59.6,30.07,East,90,0.0,0.0,91,0.00,FEW,,0.00,WeatherDisplay:10.37,2013-05-01 06:12:00,
2013-05-01 02:17:00,62.3,59.6,30.07,East,90,0.0,0.0,91,0.00,FEW,,0.00,WeatherDisplay:10.37,2013-05-01 06:17:00,
2013-05-01 02:22:00,62.3,59.6,30.07,East,90,0.0,0.0,91,0.00,FEW,,0.00,WeatherDisplay:10.37,2013-05-01 06:22:00,
2013-05-01 02:27:00,62.4,59.7,30.07,ENE,78,1.2,1.2,91,0.00,FEW,,0.00,WeatherDisplay:10.37,2013-05-01 06:27:00,
2013-05-01 02:32:00,62.4,59.7,30.07,ENE,77,0.0,0.0,91,0.00,FEW,,0.00,WeatherDisplay:10.37,2013-05-01 06:32:00,
2013-05-01 02:37:00,62.5,59.8,30.07,ENE,74,1.0,1.0,91,0.00,FEW,,0.00,WeatherDisplay:10.37,2013-05-01 06:37:00,
2013-05-01 02:42:00,62.4,59.7,30.07,ENE,74,1.2,0.0,91,0.00,FEW,,0.00,WeatherDisplay:10.37,2013-05-01 06:42:00,
2013-05-01 02:47:00,62.4,59.7,30.06,ENE,74,0.0,0.0,91,0.00,FEW,,0.00,WeatherDisplay:10.37,2013-05-01 06:47:00,
2013-05-01 02:52:00,62.3,59.6,30.06,ENE,74,1.0,0.0,91,0.00,FEW,,0.00,WeatherDisplay:10.37,2013-05-01 06:52:00,
2013-05-01 02:57:00,62.2,59.5,30.06,ENE,74,0.0,0.0,91,0.00,FEW,,0.00,WeatherDisplay:10.37,2013-05-01 06:57:00,
2013-05-01 03:02:00,62.2,59.5,30.06,ENE,74,1.0,0.0,91,0.00,FEW,,0.00,WeatherDisplay:10.37,2013-05-01 07:02:00,
2013-05-01 03:07:00,62.2,59.5,30.06,ENE,74,0.0,0.0,91,0.00,FEW,,0.00,WeatherDisplay:10.37,2013-05-01 07:07:00,
2013-05-01 03:12:00,62.1,59.4,30.06,ENE,74,0.0,0.0,91,0.00,CLR,,0.00,WeatherDisplay:10.37,2013-05-01 07:12:00,
2013-05-01 03:17:00,62.1,59.4,30.06,ENE,69,0.0,0.0,91,0.00,CLR,,0.00,WeatherDisplay:10.37,2013-05-01 07:17:00,
2013-05-01 03:22:00,62.0,59.3,30.06,ENE,69,0.0,0.0,91,0.00,CLR,,0.00,WeatherDisplay:10.37,2013-05-01 07:22:00,
2013-05-01 03:27:00,62.0,59.6,30.06,ENE,69,0.0,0.0,92,0.00,CLR,,0.00,WeatherDisplay:10.37,2013-05-01 07:27:00,
2013-05-01 03:32:00,61.9,59.5,30.06,ENE,64,0.0,0.0,92,0.00,CLR,,0.00,WeatherDisplay:10.37,2013-05-01 07:32:00,
2013-05-01 03:37:00,61.9,59.5,30.06,NE,55,1.2,1.2,92,0.00,CLR,,0.00,WeatherDisplay:10.37,2013-05-01 07:37:00,
2013-05-01 03:42:00,61.8,59.1,30.06,ENE,61,3.5,3.5,91,0.00,CLR,,0.00,WeatherDisplay:10.37,2013-05-01 07:42:00,
2013-05-01 03:47:00,61.8,59.1,30.06,ENE,67,3.5,3.5,91,0.00,CLR,,0.00,WeatherDisplay:10.37,2013-05-01 07:47:00,
2013-05-01 03:52:00,61.9,59.2,30.06,ENE,76,2.3,2.3,91,0.00,CLR,,0.00,WeatherDisplay:10.37,2013-05-01 07:52:00,
2013-05-01 03:57:00,61.9,59.2,30.06,ENE,59,2.3,2.3,91,0.00,CLR,,0.00,WeatherDisplay:10.37,2013-05-01 07:57:00,
2013-05-01 04:02:00,62.0,59.3,30.06,ENE,65,1.2,1.2,91,0.00,BKN,,0.00,WeatherDisplay:10.37,2013-05-01 08:02:00,
2013-05-01 04:07:00,62.0,59.3,30.06,ENE,66,2.3,2.3,91,0.00,BKN,,0.00,WeatherDisplay:10.37,2013-05-01 08:07:00,
2013-05-01 04:12:00,62.0,59.3,30.06,NE,52,3.5,3.5,91,0.00,BKN,,0.00,WeatherDisplay:10.37,2013-05-01 08:12:00,
2013-05-01 04:17:00,62.0,59.3,30.06,ENE,69,2.3,2.3,91,0.00,BKN,,0.00,WeatherDisplay:10.37,2013-05-01 08:17:00,
2013-05-01 04:22:00,61.9,59.2,30.06,East,83,3.5,3.5,91,0.00,BKN,,0.00,WeatherDisplay:10.37,2013-05-01 08:22:00,
2013-05-01 04:27:00,61.9,59.2,30.06,ENE,76,2.3,2.3,91,0.00,BKN,,0.00,WeatherDisplay:10.37,2013-05-01 08:27:00,
2013-05-01 04:32:00,61.9,58.9,30.06,East,81,3.5,3.5,90,0.00,BKN,,0.00,WeatherDisplay:10.37,2013-05-01 08:32:00,
2013-05-01 04:37:00,61.9,58.9,30.06,ENE,66,3.5,3.5,90,0.00,BKN,,0.00,WeatherDisplay:10.37,2013-05-01 08:37:00,
2013-05-01 04:42:00,61.9,58.9,30.06,East,85,3.5,3.5,90,0.00,SCT,,0.00,WeatherDisplay:10.37,2013-05-01 08:42:00,
2013-05-01 04:47:00,61.9,58.9,30.06,ENE,71,3.5,3.5,90,0.00,SCT,,0.00,WeatherDisplay:10.37,2013-05-01 08:47:00,
2013-05-01 04:52:00,61.9,58.9,30.06,ENE,72,2.3,2.3,90,0.00,SCT,,0.00,WeatherDisplay:10.37,2013-05-01 08:52:00,
2013-05-01 04:57:00,61.9,58.9,30.06,East,82,3.0,3.0,90,0.00,SCT,,0.00,WeatherDisplay:10.37,2013-05-01 08:57:00,
2013-05-01 05:02:00,61.9,58.9,30.06,NE,55,3.5,3.5,90,0.00,SCT,,0.00,WeatherDisplay:10.37,2013-05-01 09:02:00,
2013-05-01 05:07:00,61.8,58.8,30.06,NE,52,2.3,2.3,90,0.00,SCT,,0.00,WeatherDisplay:10.37,2013-05-01 09:07:00,
2013-05-01 05:12:00,61.8,58.8,30.06,ENE,59,2.3,2.3,90,0.00,OVC,,0.00,WeatherDisplay:10.37,2013-05-01 09:12:00,
2013-05-01 05:17:00,61.8,58.8,30.06,ENE,73,3.5,3.5,90,0.00,OVC,,0.00,WeatherDisplay:10.37,2013-05-01 09:17:00,
2013-05-01 05:22:00,61.8,58.8,30.06,ENE,67,2.3,2.3,90,0.00,OVC,,0.00,WeatherDisplay:10.37,2013-05-01 09:22:00,
2013-05-01 05:27:00,61.8,58.8,30.06,East,94,1.2,1.2,90,0.00,OVC,,0.00,WeatherDisplay:10.37,2013-05-01 09:27:00,
2013-05-01 05:32:00,61.7,58.7,30.06,NE,51,3.0,3.0,90,0.00,OVC,,0.00,WeatherDisplay:10.37,2013-05-01 09:32:00,
2013-05-01 05:37:00,61.6,58.6,30.06,ENE,78,2.3,2.3,90,0.00,OVC,,0.00,WeatherDisplay:10.37,2013-05-01 09:37:00,
2013-05-01 05:42:00,61.6,58.6,30.06,ENE,69,3.5,3.5,90,0.00,OVC,,0.00,WeatherDisplay:10.37,2013-05-01 09:42:00,
2013-05-01 05:47:00,61.5,58.2,30.06,ENE,67,3.5,3.5,89,0.00,OVC,,0.00,WeatherDisplay:10.37,2013-05-01 09:47:00,
2013-05-01 05:52:00,61.5,58.2,30.06,East,79,2.3,2.3,89,0.00,OVC,,0.00,WeatherDisplay:10.37,2013-05-01 09:52:00,
2013-05-01 05:57:00,61.4,58.1,30.05,ENE,65,2.3,2.3,89,0.00,OVC,,0.00,WeatherDisplay:10.37,2013-05-01 09:57:00,
2013-05-01 06:02:00,61.3,58.0,30.06,NE,54,3.5,3.5,89,0.00,OVC,,0.00,WeatherDisplay:10.37,2013-05-01 10:02:00,
2013-05-01 06:07:00,61.3,58.0,30.06,NE,55,5.0,5.0,89,0.00,OVC,,0.00,WeatherDisplay:10.37,2013-05-01 10:07:00,
2013-05-01 06:12:00,61.2,57.9,30.06,ESE,117,3.5,3.5,89,0.00,OVC,,0.00,WeatherDisplay:10.37,2013-05-01 10:12:00,
2013-05-01 06:17:00,61.2,57.9,30.06,ENE,58,3.5,3.5,89,0.00,OVC,,0.00,WeatherDisplay:10.37,2013-05-01 10:17:00,
2013-05-01 06:22:00,61.2,57.9,30.06,ENE,74,3.5,3.5,89,0.00,OVC,,0.00,WeatherDisplay:10.37,2013-05-01 10:22:00,
2013-05-01 06:27:00,61.1,57.5,30.06,NE,36,4.6,4.6,88,0.00,OVC,,0.00,WeatherDisplay:10.37,2013-05-01 10:27:00,
2013-05-01 06:32:00,61.1,57.5,30.06,NE,54,3.5,3.5,88,0.00,OVC,,0.00,WeatherDisplay:10.37,2013-05-01 10:32:00,
2013-05-01 06:37:00,61.1,57.5,30.06,ENE,68,2.3,2.3,88,0.00,OVC,,0.00,WeatherDisplay:10.37,2013-05-01 10:37:00,
2013-05-01 06:42:00,61.0,57.4,30.07,ENE,73,4.0,4.0,88,0.00,OVC,,0.00,WeatherDisplay:10.37,2013-05-01 10:42:00,
2013-05-01 06:47:00,61.0,57.4,30.07,ENE,61,2.3,2.3,88,0.00,OVC,,0.00,WeatherDisplay:10.37,2013-05-01 10:47:00,
2013-05-01 06:52:00,60.9,57.0,30.07,ESE,103,2.3,2.3,87,0.00,OVC,,0.00,WeatherDisplay:10.37,2013-05-01 10:52:00,
2013-05-01 06:57:00,60.8,57.2,30.08,ENE,67,3.0,3.0,88,0.00,OVC,,0.00,WeatherDisplay:10.37,2013-05-01 10:57:00,
2013-05-01 07:02:00,60.8,56.9,30.08,ENE,76,5.8,5.8,87,0.00,OVC,,0.00,WeatherDisplay:10.37,2013-05-01 11:02:00,
2013-05-01 07:07:00,60.8,56.9,30.08,East,86,5.0,5.0,87,0.00,OVC,,0.00,WeatherDisplay:10.37,2013-05-01 11:07:00,
2013-05-01 07:12:00,60.8,56.6,30.08,ENE,73,3.5,3.5,86,0.00,OVC,,0.00,WeatherDisplay:10.37,2013-05-01 11:12:00,
2013-05-01 07:17:00,60.7,56.5,30.09,NE,56,4.0,4.0,86,0.00,OVC,,0.00,WeatherDisplay:10.37,2013-05-01 11:17:00,
2013-05-01 07:22:00,60.7,56.5,30.09,ENE,59,5.0,5.0,86,0.00,OVC,,0.00,WeatherDisplay:10.37,2013-05-01 11:22:00,
2013-05-01 07:27:00,60.7,56.2,30.09,ENE,78,3.5,3.5,85,0.00,OVC,,0.00,WeatherDisplay:10.37,2013-05-01 11:27:00,
2013-05-01 07:32:00,60.7,56.2,30.10,ENE,58,3.5,3.5,85,0.00,OVC,,0.00,WeatherDisplay:10.37,2013-05-01 11:32:00,
2013-05-01 07:37:00,60.7,56.2,30.10,NE,43,3.5,3.5,85,0.00,OVC,,0.00,WeatherDisplay:10.37,2013-05-01 11:37:00,
2013-05-01 07:42:00,60.7,56.2,30.10,ENE,58,2.3,2.3,85,0.00,OVC,,0.00,WeatherDisplay:10.37,2013-05-01 11:42:00,
2013-05-01 07:47:00,60.7,56.2,30.11,ENE,65,2.3,2.3,85,0.00,OVC,,0.00,WeatherDisplay:10.37,2013-05-01 11:47:00,
2013-05-01 07:52:00,60.7,55.8,30.10,ENE,58,1.2,1.2,84,0.00,OVC,,0.00,WeatherDisplay:10.37,2013-05-01 11:52:00,
2013-05-01 07:57:00,60.7,56.2,30.11,ENE,63,2.3,2.3,85,0.00,OVC,,0.00,WeatherDisplay:10.37,2013-05-01 11:57:00,
2013-05-01 08:02:00,60.6,56.1,30.12,East,94,3.5,3.5,85,0.00,OVC,,0.00,WeatherDisplay:10.37,2013-05-01 12:02:00,
2013-05-01 08:07:00,60.6,56.1,30.12,East,94,0.0,0.0,85,0.00,OVC,,0.00,WeatherDisplay:10.37,2013-05-01 12:07:00,
2013-05-01 08:12:00,60.5,56.0,30.12,East,90,1.2,1.2,85,0.00,OVC,,0.00,WeatherDisplay:10.37,2013-05-01 12:12:00,
2013-05-01 08:17:00,60.5,56.0,30.12,ENE,78,3.5,3.5,85,0.00,OVC,,0.00,WeatherDisplay:10.37,2013-05-01 12:17:00,
2013-05-01 08:22:00,60.5,56.0,30.13,NE,44,3.0,3.0,85,0.00,OVC,,0.00,WeatherDisplay:10.37,2013-05-01 12:22:00,
2013-05-01 08:27:00,60.5,55.6,30.14,SSE,150,3.5,3.5,84,0.00,OVC,,0.00,WeatherDisplay:10.37,2013-05-01 12:27:00,
2013-05-01 08:32:00,60.6,55.7,30.14,NE,45,4.0,4.0,84,0.00,OVC,,0.00,WeatherDisplay:10.37,2013-05-01 12:32:00,
2013-05-01 08:37:00,60.7,55.8,30.14,ENE,69,3.5,3.5,84,0.00,OVC,,0.00,WeatherDisplay:10.37,2013-05-01 12:37:00,
2013-05-01 08:42:00,60.7,55.5,30.14,ENE,70,2.3,2.3,83,0.00,OVC,,0.00,WeatherDisplay:10.37,2013-05-01 12:42:00,
2013-05-01 08:47:00,60.9,56.0,30.13,ENE,78,3.5,3.5,84,0.00,OVC,,0.00,WeatherDisplay:10.37,2013-05-01 12:47:00,
2013-05-01 08:52:00,61.0,55.8,30.13,ESE,111,5.8,5.8,83,0.00,OVC,,0.00,WeatherDisplay:10.37,2013-05-01 12:52:00,
2013-05-01 08:57:00,61.1,55.9,30.13,NE,42,6.0,6.0,83,0.00,OVC,,0.00,WeatherDisplay:10.37,2013-05-01 12:57:00,
2013-05-01 09:02:00,61.1,55.6,30.13,ENE,76,3.5,3.5,82,0.00,OVC,,0.00,WeatherDisplay:10.37,2013-05-01 13:02:00,
2013-05-01 09:07:00,61.0,55.5,30.13,NE,56,4.0,4.0,82,0.00,OVC,,0.00,WeatherDisplay:10.37,2013-05-01 13:07:00,
2013-05-01 09:12:00,61.0,55.5,30.13,East,101,3.5,3.5,82,0.00,OVC,,0.00,WeatherDisplay:10.37,2013-05-01 13:12:00,
2013-05-01 09:17:00,61.2,55.7,30.13,ENE,70,2.3,2.3,82,0.00,OVC,,0.00,WeatherDisplay:10.37,2013-05-01 13:17:00,
2013-05-01 09:22:00,61.3,55.4,30.13,NE,49,3.5,3.5,81,0.00,OVC,,0.00,WeatherDisplay:10.37,2013-05-01 13:22:00,
2013-05-01 09:27:00,61.5,56.0,30.13,ENE,72,3.5,3.5,82,0.00,OVC,,0.00,WeatherDisplay:10.37,2013-05-01 13:27:00,
2013-05-01 09:32:00,61.6,55.4,30.13,East,81,5.0,5.0,80,0.00,OVC,,0.00,WeatherDisplay:10.37,2013-05-01 13:32:00,
2013-05-01 09:37:00,61.8,55.6,30.13,NNE,33,8.1,8.1,80,0.00,OVC,,0.00,WeatherDisplay:10.37,2013-05-01 13:37:00,
2013-05-01 09:42:00,61.7,55.5,30.14,East,83,5.0,5.0,80,0.00,OVC,,0.00,WeatherDisplay:10.37,2013-05-01 13:42:00,
2013-05-01 09:47:00,61.8,55.2,30.14,NE,52,3.5,3.5,79,0.00,OVC,,0.00,WeatherDisplay:10.37,2013-05-01 13:47:00,
2013-05-01 09:52:00,61.7,55.1,30.14,ENE,71,8.1,8.1,79,0.00,OVC,,0.00,WeatherDisplay:10.37,2013-05-01 13:52:00,
2013-05-01 09:57:00,61.7,55.5,30.14,ENE,76,3.5,3.5,80,0.00,OVC,,0.00,WeatherDisplay:10.37,2013-05-01 13:57:00,
2013-05-01 10:02:00,61.7,55.5,30.15,ENE,62,6.9,6.9,80,0.00,OVC,,0.00,WeatherDisplay:10.37,2013-05-01 14:02:00,
2013-05-01 10:07:00,61.6,55.4,30.15,ENE,67,4.6,4.6,80,0.00,OVC,,0.00,WeatherDisplay:10.37,2013-05-01 14:07:00,
2013-05-01 10:12:00,61.5,54.9,30.15,ENE,64,4.0,4.0,79,0.00,OVC,,0.00,WeatherDisplay:10.37,2013-05-01 14:12:00,
2013-05-01 10:17:00,61.6,55.4,30.15,East,82,4.6,4.6,80,0.00,OVC,,0.00,WeatherDisplay:10.37,2013-05-01 14:17:00,
2013-05-01 10:22:00,61.7,55.5,30.15,East,88,3.5,3.5,80,0.00,OVC,,0.00,WeatherDisplay:10.37,2013-05-01 14:22:00,
2013-05-01 10:27:00,61.7,55.5,30.15,East,96,6.9,6.9,80,0.00,OVC,,0.00,WeatherDisplay:10.37,2013-05-01 14:27:00,
2013-05-01 10:32:00,61.6,55.4,30.15,NE,54,3.5,3.5,80,0.00,OVC,,0.00,WeatherDisplay:10.37,2013-05-01 14:32:00,
2013-05-01 10:37:00,61.6,55.4,30.15,ENE,64,2.3,2.3,80,0.00,OVC,,0.00,WeatherDisplay:10.37,2013-05-01 14:37:00,
2013-05-01 10:42:00,61.6,55.4,30.15,East,81,3.5,3.5,80,0.00,OVC,,0.00,WeatherDisplay:10.37,2013-05-01 14:42:00,
2013-05-01 10:47:00,61.6,55.7,30.15,ENE,71,2.3,2.3,81,0.00,OVC,,0.00,WeatherDisplay:10.37,2013-05-01 14:47:00,
2013-05-01 10:52:00,61.6,55.4,30.15,ENE,71,3.5,3.5,80,0.00,OVC,,0.00,WeatherDisplay:10.37,2013-05-01 14:52:00,
2013-05-01 10:57:00,61.6,55.7,30.15,ENE,59,3.0,3.0,81,0.00,OVC,,0.00,WeatherDisplay:10.37,2013-05-01 14:57:00,
2013-05-01 11:02:00,61.6,55.4,30.15,East,88,4.6,4.6,80,0.00,OVC,,0.00,WeatherDisplay:10.37,2013-05-01 15:02:00,
2013-05-01 11:07:00,61.7,55.8,30.15,East,85,3.5,3.5,81,0.00,OVC,,0.00,WeatherDisplay:10.37,2013-05-01 15:07:00,
2013-05-01 11:12:00,61.9,56.0,30.15,ENE,74,3.5,3.5,81,0.00,OVC,,0.00,WeatherDisplay:10.37,2013-05-01 15:12:00,
2013-05-01 11:17:00,62.1,55.2,30.15,NE,36,3.5,3.5,78,0.00,OVC,,0.00,WeatherDisplay:10.37,2013-05-01 15:17:00,
2013-05-01 11:22:00,62.3,55.7,30.15,WSW,245,3.5,3.5,79,0.00,OVC,,0.00,WeatherDisplay:10.37,2013-05-01 15:22:00,
2013-05-01 11:27:00,62.5,55.9,30.15,ENE,59,2.3,2.3,79,0.00,OVC,,0.00,WeatherDisplay:10.37,2013-05-01 15:27:00,
2013-05-01 11:32:00,62.8,55.8,30.14,East,92,3.5,3.5,78,0.00,OVC,,0.00,WeatherDisplay:10.37,2013-05-01 15:32:00,
2013-05-01 11:37:00,63.1,56.5,30.14,NE,51,3.0,3.0,79,0.00,OVC,,0.00,WeatherDisplay:10.37,2013-05-01 15:37:00,
2013-05-01 11:42:00,63.3,55.6,30.14,ENE,71,5.8,5.8,76,0.00,OVC,,0.00,WeatherDisplay:10.37,2013-05-01 15:42:00,
2013-05-01 11:47:00,63.5,56.2,30.14,East,88,4.6,4.6,77,0.00,OVC,,0.00,WeatherDisplay:10.37,2013-05-01 15:47:00,
2013-05-01 11:52:00,63.8,56.1,30.14,NE,55,4.6,4.6,76,0.00,OVC,,0.00,WeatherDisplay:10.37,2013-05-01 15:52:00,
2013-05-01 11:57:00,63.8,55.7,30.15,ESE,103,3.5,3.5,75,0.00,OVC,,0.00,WeatherDisplay:10.37,2013-05-01 15:57:00,
2013-05-01 12:02:00,63.9,56.2,30.15,NE,54,3.5,3.5,76,0.00,OVC,,0.00,WeatherDisplay:10.37,2013-05-01 16:02:00,
2013-05-01 12:07:00,64.1,56.4,30.15,ENE,57,3.5,3.5,76,0.00,OVC,,0.00,WeatherDisplay:10.37,2013-05-01 16:07:00,
2013-05-01 12:12:00,64.3,56.2,30.14,East,79,5.0,5.0,75,0.00,OVC,,0.00,WeatherDisplay:10.37,2013-05-01 16:12:00,
2013-05-01 12:17:00,64.3,56.2,30.14,ENE,71,3.5,3.5,75,0.00,OVC,,0.00,WeatherDisplay:10.37,2013-05-01 16:17:00,
2013-05-01 12:22:00,64.2,55.7,30.15,East,88,3.5,3.5,74,0.00,OVC,,0.00,WeatherDisplay:10.37,2013-05-01 16:22:00,
2013-05-01 12:27:00,64.1,55.6,30.15,ENE,57,3.5,3.5,74,0.00,OVC,,0.00,WeatherDisplay:10.37,2013-05-01 16:27:00,
2013-05-01 12:32:00,64.1,56.0,30.15,East,80,5.0,5.0,75,0.00,OVC,,0.00,WeatherDisplay:10.37,2013-05-01 16:32:00,
2013-05-01 12:37:00,64.0,55.2,30.15,ENE,76,4.6,4.6,73,0.00,OVC,,0.00,WeatherDisplay:10.37,2013-05-01 16:37:00,
2013-05-01 12:42:00,64.0,55.5,30.15,ESE,110,2.3,2.3,74,0.00,OVC,,0.00,WeatherDisplay:10.37,2013-05-01 16:42:00,
2013-05-01 12:47:00,64.2,56.5,30.14,ENE,65,3.5,3.5,76,0.00,OVC,,0.00,WeatherDisplay:10.37,2013-05-01 16:47:00,
2013-05-01 12:52:00,64.3,55.5,30.14,ENE,59,4.6,4.6,73,0.00,OVC,,0.00,WeatherDisplay:10.37,2013-05-01 16:52:00,
2013-05-01 12:57:00,64.3,55.8,30.14,ENE,77,4.6,4.6,74,0.00,OVC,,0.00,WeatherDisplay:10.37,2013-05-01 16:57:00,
2013-05-01 13:02:00,64.4,55.9,30.14,NE,51,2.3,2.3,74,0.00,OVC,,0.00,WeatherDisplay:10.37,2013-05-01 17:02:00,
2013-05-01 13:07:00,64.5,56.0,30.14,ESE,109,3.5,3.5,74,0.00,OVC,,0.00,WeatherDisplay:10.37,2013-05-01 17:07:00,
2013-05-01 13:12:00,64.7,55.8,30.14,ENE,69,3.5,3.5,73,0.00,OVC,,0.00,WeatherDisplay:10.37,2013-05-01 17:12:00,
2013-05-01 13:17:00,64.7,55.8,30.14,NE,40,4.0,4.0,73,0.00,OVC,,0.00,WeatherDisplay:10.37,2013-05-01 17:17:00,
2013-05-01 13:22:00,64.8,55.9,30.15,ENE,74,3.5,3.5,73,0.00,OVC,,0.00,WeatherDisplay:10.37,2013-05-01 17:22:00,
2013-05-01 13:27:00,65.0,55.8,30.14,NE,38,4.6,4.6,72,0.00,OVC,,0.00,WeatherDisplay:10.37,2013-05-01 17:27:00,
2013-05-01 13:32:00,65.1,56.6,30.14,SE,140,3.0,3.0,74,0.00,OVC,,0.00,WeatherDisplay:10.37,2013-05-01 17:32:00,
2013-05-01 13:37:00,65.3,56.4,30.14,ENE,72,4.6,4.6,73,0.00,OVC,,0.00,WeatherDisplay:10.37,2013-05-01 17:37:00,
2013-05-01 13:42:00,65.4,56.1,30.14,ENE,76,3.5,3.5,72,0.00,OVC,,0.00,WeatherDisplay:10.37,2013-05-01 17:42:00,
2013-05-01 13:47:00,65.7,56.0,30.14,ENE,57,3.5,3.5,71,0.00,OVC,,0.00,WeatherDisplay:10.37,2013-05-01 17:47:00,
2013-05-01 13:52:00,65.8,56.9,30.14,ENE,73,4.6,4.6,73,0.00,OVC,,0.00,WeatherDisplay:10.37,2013-05-01 17:52:00,
2013-05-01 13:57:00,65.8,56.1,30.14,ENE,61,2.3,2.3,71,0.00,OVC,,0.00,WeatherDisplay:10.37,2013-05-01 17:57:00,
2013-05-01 14:02:00,65.9,55.8,30.14,East,90,4.6,4.6,70,0.00,OVC,,0.00,WeatherDisplay:10.37,2013-05-01 18:02:00,
2013-05-01 14:07:00,65.9,55.8,30.14,ENE,59,3.5,3.5,70,0.00,OVC,,0.00,WeatherDisplay:10.37,2013-05-01 18:07:00,
2013-05-01 14:12:00,66.0,55.9,30.14,ENE,69,3.5,3.5,70,0.00,OVC,,0.00,WeatherDisplay:10.37,2013-05-01 18:12:00,
2013-05-01 14:17:00,66.0,55.9,30.14,ENE,71,4.6,4.6,70,0.00,OVC,,0.00,WeatherDisplay:10.37,2013-05-01 18:17:00,
2013-05-01 14:22:00,66.0,56.3,30.14,ENE,75,2.3,2.3,71,0.00,OVC,,0.00,WeatherDisplay:10.37,2013-05-01 18:22:00,
2013-05-01 14:27:00,66.1,56.0,30.14,ENE,61,3.5,3.5,70,0.00,OVC,,0.00,WeatherDisplay:10.37,2013-05-01 18:27:00,
2013-05-01 14:32:00,66.3,56.2,30.14,ENE,74,2.3,2.3,70,0.00,OVC,,0.00,WeatherDisplay:10.37,2013-05-01 18:32:00,
2013-05-01 14:37:00,66.5,57.6,30.14,ENE,74,3.5,3.5,73,0.00,OVC,,0.00,WeatherDisplay:10.37,2013-05-01 18:37:00,
2013-05-01 14:42:00,66.5,56.0,30.14,NE,43,2.3,2.3,69,0.00,OVC,,0.00,WeatherDisplay:10.37,2013-05-01 18:42:00,
2013-05-01 14:47:00,66.6,56.5,30.13,ENE,71,2.3,2.3,70,0.00,OVC,,0.00,WeatherDisplay:10.37,2013-05-01 18:47:00,
2013-05-01 14:52:00,66.7,57.0,30.13,ESE,113,5.0,5.0,71,0.00,OVC,,0.00,WeatherDisplay:10.37,2013-05-01 18:52:00,
2013-05-01 15:04:00,66.9,56.4,30.13,East,90,3.5,3.5,69,0.00,OVC,,0.00,WeatherDisplay:10.37,2013-05-01 19:04:00,
2013-05-01 15:09:00,67.0,56.1,30.12,NE,46,3.5,3.5,68,0.00,OVC,,0.00,WeatherDisplay:10.37,2013-05-01 19:09:00,
2013-05-01 15:14:00,66.9,56.0,30.12,East,84,4.6,4.6,68,0.00,OVC,,0.00,WeatherDisplay:10.37,2013-05-01 19:14:00,
2013-05-01 15:19:00,66.8,55.5,30.12,ENE,60,6.9,6.9,67,0.00,OVC,,0.00,WeatherDisplay:10.37,2013-05-01 19:19:00,
2013-05-01 15:24:00,66.7,55.4,30.12,NE,51,4.0,4.0,67,0.00,OVC,,0.00,WeatherDisplay:10.37,2013-05-01 19:24:00,
2013-05-01 15:29:00,66.7,55.8,30.11,ENE,78,2.3,2.3,68,0.00,OVC,,0.00,WeatherDisplay:10.37,2013-05-01 19:29:00,
2013-05-01 15:34:00,66.7,55.4,30.11,NE,48,3.5,3.5,67,0.00,OVC,,0.00,WeatherDisplay:10.37,2013-05-01 19:34:00,
2013-05-01 15:39:00,66.8,55.5,30.11,ENE,75,4.6,4.6,67,0.00,OVC,,0.00,WeatherDisplay:10.37,2013-05-01 19:39:00,
2013-05-01 15:44:00,66.8,55.5,30.11,ENE,65,4.6,4.6,67,0.00,OVC,,0.00,WeatherDisplay:10.37,2013-05-01 19:44:00,
2013-05-01 15:49:00,66.9,55.6,30.11,NE,47,5.8,5.8,67,0.00,OVC,,0.00,WeatherDisplay:10.37,2013-05-01 19:49:00,
2013-05-01 15:54:00,66.9,56.0,30.10,ENE,72,3.5,3.5,68,0.00,OVC,,0.00,WeatherDisplay:10.37,2013-05-01 19:54:00,
2013-05-01 15:59:00,67.0,56.1,30.11,ENE,65,3.5,3.5,68,0.00,OVC,,0.00,WeatherDisplay:10.37,2013-05-01 19:59:00,
2013-05-01 16:04:00,67.1,56.2,30.10,ENE,66,3.5,3.5,68,0.00,OVC,,0.00,WeatherDisplay:10.37,2013-05-01 20:04:00,
2013-05-01 16:09:00,67.2,56.3,30.10,ENE,59,2.3,2.3,68,0.00,OVC,,0.00,WeatherDisplay:10.37,2013-05-01 20:09:00,
2013-05-01 16:14:00,67.4,56.1,30.10,ENE,67,2.3,2.3,67,0.00,SCT,,0.00,WeatherDisplay:10.37,2013-05-01 20:14:00,
2013-05-01 16:19:00,67.4,56.5,30.10,ENE,58,3.5,3.5,68,0.00,SCT,,0.00,WeatherDisplay:10.37,2013-05-01 20:19:00,
2013-05-01 16:24:00,67.6,56.7,30.10,ENE,63,2.3,2.3,68,0.00,SCT,,0.00,WeatherDisplay:10.37,2013-05-01 20:24:00,
2013-05-01 16:29:00,67.6,55.8,30.10,East,92,6.9,6.9,66,0.00,SCT,,0.00,WeatherDisplay:10.37,2013-05-01 20:29:00,
2013-05-01 16:34:00,67.7,56.8,30.09,NE,49,4.6,4.6,68,0.00,SCT,,0.00,WeatherDisplay:10.37,2013-05-01 20:34:00,
2013-05-01 16:39:00,67.7,55.9,30.09,East,86,4.6,4.6,66,0.00,SCT,,0.00,WeatherDisplay:10.37,2013-05-01 20:39:00,
2013-05-01 16:44:00,67.8,55.6,30.09,ENE,78,3.5,3.5,65,0.00,SCT,,0.00,WeatherDisplay:10.37,2013-05-01 20:44:00,
2013-05-01 16:49:00,67.7,56.3,30.09,ENE,57,4.6,4.6,67,0.00,SCT,,0.00,WeatherDisplay:10.37,2013-05-01 20:49:00,
2013-05-01 16:54:00,67.7,56.3,30.09,ENE,72,2.3,2.3,67,0.00,SCT,,0.00,WeatherDisplay:10.37,2013-05-01 20:54:00,
2013-05-01 16:59:00,67.7,56.8,30.09,ENE,60,3.5,3.5,68,0.00,SCT,,0.00,WeatherDisplay:10.37,2013-05-01 20:59:00,
2013-05-01 17:04:00,67.6,55.8,30.09,ENE,64,3.5,3.5,66,0.00,SCT,,0.00,WeatherDisplay:10.37,2013-05-01 21:04:00,
2013-05-01 17:09:00,67.6,55.8,30.09,East,84,4.6,4.6,66,0.00,SCT,,0.00,WeatherDisplay:10.37,2013-05-01 21:09:00,
2013-05-01 17:14:00,67.4,55.2,30.09,NE,56,3.5,3.5,65,0.00,OVC,,0.00,WeatherDisplay:10.37,2013-05-01 21:14:00,
2013-05-01 17:19:00,67.2,55.9,30.09,East,79,6.9,6.9,67,0.00,OVC,,0.00,WeatherDisplay:10.37,2013-05-01 21:19:00,
2013-05-01 17:24:00,67.0,56.1,30.10,East,88,4.6,4.6,68,0.00,OVC,,0.00,WeatherDisplay:10.37,2013-05-01 21:24:00,
2013-05-01 17:29:00,66.7,55.4,30.10,East,80,4.6,4.6,67,0.00,OVC,,0.00,WeatherDisplay:10.37,2013-05-01 21:29:00,
2013-05-01 17:34:00,66.5,54.8,30.09,NNE,25,4.6,4.6,66,0.00,OVC,,0.00,WeatherDisplay:10.37,2013-05-01 21:34:00,
2013-05-01 17:39:00,66.2,54.9,30.09,NE,48,7.0,7.0,67,0.00,OVC,,0.00,WeatherDisplay:10.37,2013-05-01 21:39:00,
2013-05-01 17:44:00,66.0,54.7,30.09,ENE,67,3.5,3.5,67,0.00,OVC,,0.00,WeatherDisplay:10.37,2013-05-01 21:44:00,
2013-05-01 17:49:00,65.9,54.6,30.09,ENE,61,7.0,7.0,67,0.00,OVC,,0.00,WeatherDisplay:10.37,2013-05-01 21:49:00,
2013-05-01 17:54:00,65.8,54.5,30.09,ENE,68,4.6,4.6,67,0.00,OVC,,0.00,WeatherDisplay:10.37,2013-05-01 21:54:00,
2013-05-01 17:59:00,65.6,54.3,30.09,NE,51,3.5,3.5,67,0.00,OVC,,0.00,WeatherDisplay:10.37,2013-05-01 21:59:00,
2013-05-01 18:04:00,65.5,54.7,30.09,ENE,59,4.0,4.0,68,0.00,OVC,,0.00,WeatherDisplay:10.37,2013-05-01 22:04:00,
2013-05-01 18:09:00,65.4,54.6,30.09,ENE,64,2.3,2.3,68,0.00,OVC,,0.00,WeatherDisplay:10.37,2013-05-01 22:09:00,
2013-05-01 18:14:00,65.3,54.9,30.09,ENE,57,3.5,3.5,69,0.00,OVC,,0.00,WeatherDisplay:10.37,2013-05-01 22:14:00,
2013-05-01 18:19:00,65.2,54.8,30.09,ENE,63,3.5,3.5,69,0.00,OVC,,0.00,WeatherDisplay:10.37,2013-05-01 22:19:00,
2013-05-01 18:24:00,65.1,54.3,30.09,East,80,3.5,3.5,68,0.00,OVC,,0.00,WeatherDisplay:10.37,2013-05-01 22:24:00,
2013-05-01 18:29:00,65.0,54.2,30.09,ENE,61,4.6,4.6,68,0.00,OVC,,0.00,WeatherDisplay:10.37,2013-05-01 22:29:00,
2013-05-01 18:34:00,65.0,54.2,30.09,ENE,64,3.5,3.5,68,0.00,OVC,,0.00,WeatherDisplay:10.37,2013-05-01 22:34:00,
2013-05-01 18:39:00,65.0,54.2,30.09,East,82,5.0,5.0,68,0.00,OVC,,0.00,WeatherDisplay:10.37,2013-05-01 22:39:00,
2013-05-01 18:44:00,65.0,54.2,30.09,ENE,57,2.3,2.3,68,0.00,OVC,,0.00,WeatherDisplay:10.37,2013-05-01 22:44:00,
2013-05-01 18:49:00,64.9,54.1,30.09,ENE,62,2.3,2.3,68,0.00,OVC,,0.00,WeatherDisplay:10.37,2013-05-01 22:49:00,
2013-05-01 18:54:00,64.9,54.9,30.10,ENE,69,4.6,4.6,70,0.00,OVC,,0.00,WeatherDisplay:10.37,2013-05-01 22:54:00,
2013-05-01 18:59:00,64.7,54.7,30.09,East,81,4.6,4.6,70,0.00,OVC,,0.00,WeatherDisplay:10.37,2013-05-01 22:59:00,
2013-05-01 19:04:00,64.6,54.2,30.10,NE,49,4.0,4.0,69,0.00,OVC,,0.00,WeatherDisplay:10.37,2013-05-01 23:04:00,
2013-05-01 19:09:00,64.5,54.5,30.10,ENE,68,4.0,4.0,70,0.00,OVC,,0.00,WeatherDisplay:10.37,2013-05-01 23:09:00,
2013-05-01 19:14:00,64.5,53.7,30.10,ESE,105,3.5,3.5,68,0.00,OVC,,0.00,WeatherDisplay:10.37,2013-05-01 23:14:00,
2013-05-01 19:19:00,64.5,54.1,30.10,ENE,68,2.3,2.3,69,0.00,OVC,,0.00,WeatherDisplay:10.37,2013-05-01 23:19:00,
2013-05-01 19:24:00,64.4,54.4,30.10,East,89,3.5,3.5,70,0.00,OVC,,0.00,WeatherDisplay:10.37,2013-05-01 23:24:00,
2013-05-01 19:29:00,64.3,53.9,30.10,NE,55,2.3,2.3,69,0.00,OVC,,0.00,WeatherDisplay:10.37,2013-05-01 23:29:00,
2013-05-01 19:34:00,64.2,54.2,30.10,ENE,77,3.5,3.5,70,0.00,OVC,,0.00,WeatherDisplay:10.37,2013-05-01 23:34:00,
2013-05-01 19:39:00,64.2,54.2,30.10,East,92,4.6,4.6,70,0.00,OVC,,0.00,WeatherDisplay:10.37,2013-05-01 23:39:00,
2013-05-01 19:44:00,64.1,54.1,30.10,ENE,60,3.5,3.5,70,0.00,OVC,,0.00,WeatherDisplay:10.37,2013-05-01 23:44:00,
2013-05-01 19:49:00,64.0,54.4,30.10,NE,44,2.3,2.3,71,0.00,OVC,,0.00,WeatherDisplay:10.37,2013-05-01 23:49:00,
2013-05-01 19:54:00,63.9,54.7,30.10,NE,44,3.5,3.5,72,0.00,OVC,,0.00,WeatherDisplay:10.37,2013-05-01 23:54:00,
2013-05-01 19:59:00,63.8,54.2,30.10,NE,36,2.0,2.0,71,0.00,OVC,,0.00,WeatherDisplay:10.37,2013-05-01 23:59:00,
2013-05-01 20:04:00,63.8,54.6,30.10,ENE,66,1.2,1.2,72,0.00,OVC,,0.00,WeatherDisplay:10.37,2013-05-02 00:04:00,
2013-05-01 20:09:00,63.6,55.2,30.10,ENE,64,1.2,1.2,74,0.00,OVC,,0.00,WeatherDisplay:10.37,2013-05-02 00:09:00,
2013-05-01 20:14:00,63.4,54.2,30.10,ENE,65,1.2,1.2,72,0.00,OVC,,0.00,WeatherDisplay:10.37,2013-05-02 00:14:00,
2013-05-01 20:19:00,63.3,54.9,30.10,ENE,65,1.2,1.2,74,0.00,OVC,,0.00,WeatherDisplay:10.37,2013-05-02 00:19:00,
2013-05-01 20:24:00,63.2,55.1,30.11,ENE,69,2.3,2.3,75,0.00,OVC,,0.00,WeatherDisplay:10.37,2013-05-02 00:24:00,
2013-05-01 20:29:00,63.0,54.6,30.11,ENE,61,3.5,3.5,74,0.00,OVC,,0.00,WeatherDisplay:10.37,2013-05-02 00:29:00,
2013-05-01 20:34:00,62.9,54.5,30.11,ENE,67,0.0,0.0,74,0.00,OVC,,0.00,WeatherDisplay:10.37,2013-05-02 00:34:00,
2013-05-01 20:39:00,62.8,54.8,30.11,ENE,67,0.0,0.0,75,0.00,OVC,,0.00,WeatherDisplay:10.37,2013-05-02 00:39:00,
2013-05-01 20:44:00,62.7,55.0,30.11,ENE,66,2.3,2.3,76,0.00,OVC,,0.00,WeatherDisplay:10.37,2013-05-02 00:44:00,
2013-05-01 20:49:00,62.6,54.9,30.12,East,98,3.5,3.5,76,0.00,OVC,,0.00,WeatherDisplay:10.37,2013-05-02 00:49:00,
2013-05-01 20:54:00,62.6,54.9,30.12,NE,44,3.5,3.5,76,0.00,OVC,,0.00,WeatherDisplay:10.37,2013-05-02 00:54:00,
2013-05-01 20:59:00,62.6,54.9,30.12,East,82,3.5,3.5,76,0.00,OVC,,0.00,WeatherDisplay:10.37,2013-05-02 00:59:00,
2013-05-01 21:04:00,62.6,54.9,30.12,East,81,3.5,3.5,76,0.00,OVC,,0.00,WeatherDisplay:10.37,2013-05-02 01:04:00,
2013-05-01 21:09:00,62.6,54.6,30.12,ENE,77,3.5,3.5,75,0.00,OVC,,0.00,WeatherDisplay:10.37,2013-05-02 01:09:00,
2013-05-01 21:14:00,62.6,54.6,30.12,East,79,1.2,1.2,75,0.00,OVC,,0.00,WeatherDisplay:10.37,2013-05-02 01:14:00,
2013-05-01 21:19:00,62.6,54.2,30.13,SE,140,6.9,6.9,74,0.00,OVC,,0.00,WeatherDisplay:10.37,2013-05-02 01:19:00,
2013-05-01 21:24:00,62.5,54.5,30.13,ENE,68,3.5,3.5,75,0.00,OVC,,0.00,WeatherDisplay:10.37,2013-05-02 01:24:00,
2013-05-01 21:29:00,62.5,54.5,30.13,SSE,150,3.5,3.5,75,0.00,OVC,,0.00,WeatherDisplay:10.37,2013-05-02 01:29:00,
2013-05-01 21:34:00,62.5,54.8,30.14,NE,51,3.5,3.5,76,0.00,OVC,,0.00,WeatherDisplay:10.37,2013-05-02 01:34:00,
2013-05-01 21:39:00,62.3,54.3,30.14,ESE,119,3.5,3.5,75,0.00,OVC,,0.00,WeatherDisplay:10.37,2013-05-02 01:39:00,
2013-05-01 21:44:00,62.3,54.3,30.14,NE,51,3.5,3.5,75,0.00,OVC,,0.00,WeatherDisplay:10.37,2013-05-02 01:44:00,
2013-05-01 21:49:00,62.3,54.6,30.14,ENE,57,2.0,2.0,76,0.00,OVC,,0.00,WeatherDisplay:10.37,2013-05-02 01:49:00,
2013-05-01 21:54:00,62.2,54.9,30.15,ENE,66,2.3,2.3,77,0.00,OVC,,0.00,WeatherDisplay:10.37,2013-05-02 01:54:00,
2013-05-01 21:59:00,62.1,54.4,30.15,East,87,3.5,3.5,76,0.00,OVC,,0.00,WeatherDisplay:10.37,2013-05-02 01:59:00,
2013-05-01 22:04:00,62.0,54.7,30.15,ENE,69,3.5,3.5,77,0.00,OVC,,0.00,WeatherDisplay:10.37,2013-05-02 02:04:00,
2013-05-01 22:09:00,62.0,54.7,30.15,ENE,67,3.5,3.5,77,0.00,OVC,,0.00,WeatherDisplay:10.37,2013-05-02 02:09:00,
2013-05-01 22:14:00,61.9,54.6,30.15,ENE,76,3.5,3.5,77,0.00,OVC,,0.00,WeatherDisplay:10.37,2013-05-02 02:14:00,
2013-05-01 22:19:00,61.9,54.6,30.15,East,79,3.5,3.5,77,0.00,OVC,,0.00,WeatherDisplay:10.37,2013-05-02 02:19:00,
2013-05-01 22:24:00,61.9,54.6,30.15,ENE,78,3.5,3.5,77,0.00,OVC,,0.00,WeatherDisplay:10.37,2013-05-02 02:24:00,
2013-05-01 22:29:00,61.9,54.6,30.15,East,86,4.6,4.6,77,0.00,OVC,,0.00,WeatherDisplay:10.37,2013-05-02 02:29:00,
2013-05-01 22:34:00,61.8,54.5,30.15,ESE,111,3.5,3.5,77,0.00,OVC,,0.00,WeatherDisplay:10.37,2013-05-02 02:34:00,
2013-05-01 22:39:00,61.8,54.5,30.15,ENE,74,2.3,2.3,77,0.00,OVC,,0.00,WeatherDisplay:10.37,2013-05-02 02:39:00,
2013-05-01 22:44:00,61.7,54.8,30.15,East,92,2.3,2.3,78,0.00,OVC,,0.00,WeatherDisplay:10.37,2013-05-02 02:44:00,
2013-05-01 22:49:00,61.6,54.7,30.15,ENE,67,4.6,4.6,78,0.00,OVC,,0.00,WeatherDisplay:10.37,2013-05-02 02:49:00,
2013-05-01 22:54:00,61.6,54.7,30.15,NE,46,4.6,4.6,78,0.00,OVC,,0.00,WeatherDisplay:10.37,2013-05-02 02:54:00,
2013-05-01 22:59:00,61.6,54.7,30.15,ENE,59,3.5,3.5,78,0.00,OVC,,0.00,WeatherDisplay:10.37,2013-05-02 02:59:00,
2013-05-01 23:04:00,61.6,54.7,30.16,ENE,72,2.3,2.3,78,0.00,OVC,,0.00,WeatherDisplay:10.37,2013-05-02 03:04:00,
2013-05-01 23:09:00,61.6,54.7,30.16,East,82,3.5,3.5,78,0.00,OVC,,0.00,WeatherDisplay:10.37,2013-05-02 03:09:00,
2013-05-01 23:14:00,61.6,54.7,30.16,ENE,78,6.9,6.9,78,0.00,OVC,,0.00,WeatherDisplay:10.37,2013-05-02 03:14:00,
2013-05-01 23:19:00,61.6,55.0,30.16,NE,52,3.5,3.5,79,0.00,OVC,,0.00,WeatherDisplay:10.37,2013-05-02 03:19:00,
2013-05-01 23:24:00,61.5,54.9,30.16,ENE,71,3.5,3.5,79,0.00,OVC,,0.00,WeatherDisplay:10.37,2013-05-02 03:24:00,
2013-05-01 23:29:00,61.5,54.9,30.16,ENE,60,2.3,2.3,79,0.00,OVC,,0.00,WeatherDisplay:10.37,2013-05-02 03:29:00,
2013-05-01 23:34:00,61.4,54.8,30.16,SE,137,3.5,3.5,79,0.00,OVC,,0.00,WeatherDisplay:10.37,2013-05-02 03:34:00,
2013-05-01 23:39:00,61.3,54.7,30.16,East,79,4.6,4.6,79,0.00,OVC,,0.00,WeatherDisplay:10.37,2013-05-02 03:39:00,
2013-05-01 23:44:00,61.3,54.7,30.16,ENE,71,3.5,3.5,79,0.00,OVC,,0.00,WeatherDisplay:10.37,2013-05-02 03:44:00,
2013-05-01 23:49:00,61.3,54.7,30.16,East,83,3.5,3.5,79,0.00,OVC,,0.00,WeatherDisplay:10.37,2013-05-02 03:49:00,
2013-05-01 23:54:00,61.2,55.0,30.15,ENE,72,3.5,3.5,80,0.00,OVC,,0.00,WeatherDisplay:10.37,2013-05-02 03:54:00,
2013-05-01 23:59:00,61.1,54.5,30.15,East,80,4.6,4.6,79,0.00,OVC,,0.00,WeatherDisplay:10.37,2013-05-02 03:59:00,